sensor_id;sensor_type;location;lat;lon;timestamp;P1;durP1;ratioP1;P2;durP2;ratioP2
75691;SDS011;64307;52.508;6.090;2023-05-10T00:00:40;10.88;;;6.32;;
75691;SDS011;64307;52.508;6.090;2023-05-10T00:03:06;13.05;;;7.07;;
75691;SDS011;64307;52.508;6.090;2023-05-10T00:05:31;11.75;;;7.00;;
75691;SDS011;64307;52.508;6.090;2023-05-10T00:07:57;11.93;;;7.32;;
75691;SDS011;64307;52.508;6.090;2023-05-10T00:10:22;13.43;;;7.63;;
75691;SDS011;64307;52.508;6.090;2023-05-10T00:12:48;11.35;;;7.00;;
75691;SDS011;64307;52.508;6.090;2023-05-10T00:15:13;13.57;;;8.30;;
75691;SDS011;64307;52.508;6.090;2023-05-10T00:17:38;13.77;;;7.95;;
75691;SDS011;64307;52.508;6.090;2023-05-10T00:20:05;14.55;;;7.68;;
75691;SDS011;64307;52.508;6.090;2023-05-10T00:22:31;14.30;;;8.40;;
75691;SDS011;64307;52.508;6.090;2023-05-10T00:24:57;14.70;;;8.75;;
75691;SDS011;64307;52.508;6.090;2023-05-10T00:27:22;14.38;;;8.07;;
75691;SDS011;64307;52.508;6.090;2023-05-10T00:29:48;13.82;;;8.25;;
75691;SDS011;64307;52.508;6.090;2023-05-10T00:32:13;13.80;;;8.13;;
75691;SDS011;64307;52.508;6.090;2023-05-10T00:34:39;15.45;;;8.75;;
75691;SDS011;64307;52.508;6.090;2023-05-10T00:37:04;14.77;;;8.32;;
75691;SDS011;64307;52.508;6.090;2023-05-10T00:39:30;15.15;;;8.70;;
75691;SDS011;64307;52.508;6.090;2023-05-10T00:41:55;15.07;;;8.82;;
75691;SDS011;64307;52.508;6.090;2023-05-10T00:44:21;16.42;;;9.82;;
75691;SDS011;64307;52.508;6.090;2023-05-10T00:46:46;16.65;;;9.20;;
75691;SDS011;64307;52.508;6.090;2023-05-10T00:49:13;15.48;;;8.43;;
75691;SDS011;64307;52.508;6.090;2023-05-10T00:51:38;17.10;;;9.43;;
75691;SDS011;64307;52.508;6.090;2023-05-10T00:54:04;18.35;;;10.10;;
75691;SDS011;64307;52.508;6.090;2023-05-10T00:56:30;16.40;;;8.68;;
75691;SDS011;64307;52.508;6.090;2023-05-10T00:58:55;18.30;;;10.05;;
75691;SDS011;64307;52.508;6.090;2023-05-10T01:01:21;16.98;;;9.27;;
75691;SDS011;64307;52.508;6.090;2023-05-10T01:03:46;16.98;;;9.73;;
75691;SDS011;64307;52.508;6.090;2023-05-10T01:06:12;16.85;;;9.18;;
75691;SDS011;64307;52.508;6.090;2023-05-10T01:08:37;17.35;;;9.57;;
75691;SDS011;64307;52.508;6.090;2023-05-10T01:11:04;19.27;;;9.82;;
75691;SDS011;64307;52.508;6.090;2023-05-10T01:15:58;17.58;;;10.20;;
75691;SDS011;64307;52.508;6.090;2023-05-10T01:18:26;20.20;;;10.52;;
75691;SDS011;64307;52.508;6.090;2023-05-10T01:20:58;21.23;;;10.57;;
75691;SDS011;64307;52.508;6.090;2023-05-10T01:23:45;18.50;;;10.27;;
75691;SDS011;64307;52.508;6.090;2023-05-10T01:26:39;19.58;;;9.82;;
75691;SDS011;64307;52.508;6.090;2023-05-10T01:34:19;18.30;;;10.05;;
75691;SDS011;64307;52.508;6.090;2023-05-10T01:39:42;19.55;;;10.25;;
75691;SDS011;64307;52.508;6.090;2023-05-10T01:42:14;18.13;;;9.60;;
75691;SDS011;64307;52.508;6.090;2023-05-10T01:50:10;19.48;;;9.65;;
75691;SDS011;64307;52.508;6.090;2023-05-10T01:52:42;18.50;;;9.40;;
75691;SDS011;64307;52.508;6.090;2023-05-10T01:55:29;19.42;;;9.55;;
75691;SDS011;64307;52.508;6.090;2023-05-10T01:58:07;18.40;;;9.13;;
75691;SDS011;64307;52.508;6.090;2023-05-10T02:00:35;20.55;;;9.93;;
75691;SDS011;64307;52.508;6.090;2023-05-10T02:03:04;18.88;;;9.93;;
75691;SDS011;64307;52.508;6.090;2023-05-10T02:05:31;19.88;;;9.45;;
75691;SDS011;64307;52.508;6.090;2023-05-10T02:07:59;20.08;;;9.60;;
75691;SDS011;64307;52.508;6.090;2023-05-10T02:10:28;17.52;;;9.13;;
75691;SDS011;64307;52.508;6.090;2023-05-10T02:12:54;20.17;;;10.38;;
75691;SDS011;64307;52.508;6.090;2023-05-10T02:15:23;19.77;;;9.88;;
75691;SDS011;64307;52.508;6.090;2023-05-10T02:17:50;20.52;;;10.13;;
75691;SDS011;64307;52.508;6.090;2023-05-10T02:20:19;22.08;;;10.13;;
75691;SDS011;64307;52.508;6.090;2023-05-10T02:22:45;18.55;;;9.52;;
75691;SDS011;64307;52.508;6.090;2023-05-10T02:25:14;22.92;;;10.60;;
75691;SDS011;64307;52.508;6.090;2023-05-10T02:27:41;21.33;;;9.85;;
75691;SDS011;64307;52.508;6.090;2023-05-10T02:30:08;17.95;;;9.35;;
75691;SDS011;64307;52.508;6.090;2023-05-10T02:32:35;18.92;;;9.65;;
75691;SDS011;64307;52.508;6.090;2023-05-10T02:35:02;21.33;;;9.43;;
75691;SDS011;64307;52.508;6.090;2023-05-10T02:37:28;20.42;;;9.02;;
75691;SDS011;64307;52.508;6.090;2023-05-10T02:39:55;19.77;;;9.45;;
75691;SDS011;64307;52.508;6.090;2023-05-10T02:42:23;17.55;;;9.25;;
75691;SDS011;64307;52.508;6.090;2023-05-10T02:44:52;20.42;;;10.10;;
75691;SDS011;64307;52.508;6.090;2023-05-10T02:47:19;23.35;;;11.25;;
75691;SDS011;64307;52.508;6.090;2023-05-10T02:49:44;19.20;;;9.20;;
75691;SDS011;64307;52.508;6.090;2023-05-10T02:52:10;19.02;;;9.35;;
75691;SDS011;64307;52.508;6.090;2023-05-10T02:54:45;21.40;;;9.95;;
75691;SDS011;64307;52.508;6.090;2023-05-10T02:57:17;22.13;;;10.35;;
75691;SDS011;64307;52.508;6.090;2023-05-10T02:59:56;23.20;;;10.20;;
75691;SDS011;64307;52.508;6.090;2023-05-10T03:02:22;23.00;;;10.88;;
75691;SDS011;64307;52.508;6.090;2023-05-10T03:04:47;24.95;;;10.52;;
75691;SDS011;64307;52.508;6.090;2023-05-10T03:07:13;24.57;;;10.83;;
75691;SDS011;64307;52.508;6.090;2023-05-10T03:09:38;21.15;;;10.82;;
75691;SDS011;64307;52.508;6.090;2023-05-10T03:17:30;22.20;;;10.73;;
75691;SDS011;64307;52.508;6.090;2023-05-10T03:20:11;20.92;;;9.75;;
75691;SDS011;64307;52.508;6.090;2023-05-10T03:22:44;22.60;;;9.75;;
75691;SDS011;64307;52.508;6.090;2023-05-10T03:25:11;22.75;;;9.90;;
75691;SDS011;64307;52.508;6.090;2023-05-10T03:27:40;25.25;;;11.13;;
75691;SDS011;64307;52.508;6.090;2023-05-10T03:30:08;22.42;;;10.63;;
75691;SDS011;64307;52.508;6.090;2023-05-10T03:32:36;23.85;;;11.77;;
75691;SDS011;64307;52.508;6.090;2023-05-10T03:35:08;23.40;;;11.45;;
75691;SDS011;64307;52.508;6.090;2023-05-10T03:37:35;25.67;;;11.48;;
75691;SDS011;64307;52.508;6.090;2023-05-10T03:40:01;22.25;;;10.50;;
75691;SDS011;64307;52.508;6.090;2023-05-10T03:42:27;24.90;;;11.77;;
75691;SDS011;64307;52.508;6.090;2023-05-10T03:44:52;24.05;;;11.73;;
75691;SDS011;64307;52.508;6.090;2023-05-10T03:47:18;27.60;;;11.50;;
75691;SDS011;64307;52.508;6.090;2023-05-10T03:49:44;29.52;;;11.70;;
75691;SDS011;64307;52.508;6.090;2023-05-10T03:52:09;26.40;;;13.10;;
75691;SDS011;64307;52.508;6.090;2023-05-10T03:54:35;27.00;;;12.37;;
75691;SDS011;64307;52.508;6.090;2023-05-10T03:57:00;25.37;;;11.53;;
75691;SDS011;64307;52.508;6.090;2023-05-10T03:59:25;30.00;;;12.50;;
75691;SDS011;64307;52.508;6.090;2023-05-10T04:01:51;28.20;;;13.15;;
75691;SDS011;64307;52.508;6.090;2023-05-10T04:04:16;25.77;;;11.77;;
75691;SDS011;64307;52.508;6.090;2023-05-10T04:06:43;27.70;;;12.98;;
75691;SDS011;64307;52.508;6.090;2023-05-10T04:09:09;28.92;;;13.00;;
75691;SDS011;64307;52.508;6.090;2023-05-10T04:11:34;30.95;;;12.90;;
75691;SDS011;64307;52.508;6.090;2023-05-10T04:14:01;28.58;;;13.43;;
75691;SDS011;64307;52.508;6.090;2023-05-10T04:16:26;28.48;;;13.20;;
75691;SDS011;64307;52.508;6.090;2023-05-10T04:18:53;33.13;;;13.80;;
75691;SDS011;64307;52.508;6.090;2023-05-10T04:21:18;31.27;;;14.13;;
75691;SDS011;64307;52.508;6.090;2023-05-10T04:23:45;30.17;;;14.23;;
75691;SDS011;64307;52.508;6.090;2023-05-10T04:26:10;29.77;;;13.40;;
75691;SDS011;64307;52.508;6.090;2023-05-10T04:28:36;28.95;;;13.50;;
75691;SDS011;64307;52.508;6.090;2023-05-10T04:31:08;28.90;;;12.98;;
75691;SDS011;64307;52.508;6.090;2023-05-10T04:33:34;28.17;;;12.88;;
75691;SDS011;64307;52.508;6.090;2023-05-10T04:36:00;29.02;;;12.50;;
75691;SDS011;64307;52.508;6.090;2023-05-10T04:38:26;27.02;;;12.38;;
75691;SDS011;64307;52.508;6.090;2023-05-10T04:40:52;27.42;;;11.57;;
75691;SDS011;64307;52.508;6.090;2023-05-10T04:43:18;23.08;;;11.23;;
75691;SDS011;64307;52.508;6.090;2023-05-10T04:45:44;23.80;;;10.68;;
75691;SDS011;64307;52.508;6.090;2023-05-10T04:48:09;23.98;;;11.05;;
75691;SDS011;64307;52.508;6.090;2023-05-10T04:50:34;22.60;;;11.02;;
75691;SDS011;64307;52.508;6.090;2023-05-10T04:52:59;23.25;;;10.68;;
75691;SDS011;64307;52.508;6.090;2023-05-10T04:55:25;22.08;;;10.77;;
75691;SDS011;64307;52.508;6.090;2023-05-10T04:57:51;21.73;;;9.90;;
75691;SDS011;64307;52.508;6.090;2023-05-10T05:00:17;19.52;;;9.95;;
75691;SDS011;64307;52.508;6.090;2023-05-10T05:02:43;22.08;;;9.80;;
75691;SDS011;64307;52.508;6.090;2023-05-10T05:05:10;22.33;;;10.10;;
75691;SDS011;64307;52.508;6.090;2023-05-10T05:07:37;20.08;;;9.07;;
75691;SDS011;64307;52.508;6.090;2023-05-10T05:10:03;20.50;;;10.00;;
75691;SDS011;64307;52.508;6.090;2023-05-10T05:12:32;21.50;;;9.77;;
75691;SDS011;64307;52.508;6.090;2023-05-10T05:14:58;19.67;;;9.48;;
75691;SDS011;64307;52.508;6.090;2023-05-10T05:17:23;16.40;;;8.18;;
75691;SDS011;64307;52.508;6.090;2023-05-10T05:19:48;18.20;;;9.05;;
75691;SDS011;64307;52.508;6.090;2023-05-10T05:22:14;20.80;;;9.20;;
75691;SDS011;64307;52.508;6.090;2023-05-10T05:24:39;16.35;;;9.05;;
75691;SDS011;64307;52.508;6.090;2023-05-10T05:27:04;14.90;;;8.73;;
75691;SDS011;64307;52.508;6.090;2023-05-10T05:29:30;15.45;;;8.57;;
75691;SDS011;64307;52.508;6.090;2023-05-10T05:31:56;16.63;;;8.57;;
75691;SDS011;64307;52.508;6.090;2023-05-10T05:34:21;18.75;;;8.48;;
75691;SDS011;64307;52.508;6.090;2023-05-10T05:36:47;13.13;;;7.43;;
75691;SDS011;64307;52.508;6.090;2023-05-10T05:39:12;15.95;;;7.88;;
75691;SDS011;64307;52.508;6.090;2023-05-10T05:41:37;15.03;;;8.10;;
75691;SDS011;64307;52.508;6.090;2023-05-10T05:44:03;16.90;;;8.40;;
75691;SDS011;64307;52.508;6.090;2023-05-10T05:46:28;15.20;;;8.45;;
75691;SDS011;64307;52.508;6.090;2023-05-10T05:48:53;18.40;;;9.33;;
75691;SDS011;64307;52.508;6.090;2023-05-10T05:51:19;18.67;;;9.10;;
75691;SDS011;64307;52.508;6.090;2023-05-10T05:53:44;19.23;;;10.23;;
75691;SDS011;64307;52.508;6.090;2023-05-10T05:56:09;18.17;;;8.80;;
75691;SDS011;64307;52.508;6.090;2023-05-10T05:58:34;20.03;;;9.70;;
75691;SDS011;64307;52.508;6.090;2023-05-10T06:01:00;24.17;;;10.50;;
75691;SDS011;64307;52.508;6.090;2023-05-10T06:03:26;20.17;;;10.45;;
75691;SDS011;64307;52.508;6.090;2023-05-10T06:05:51;20.00;;;10.68;;
75691;SDS011;64307;52.508;6.090;2023-05-10T06:08:16;22.35;;;10.55;;
75691;SDS011;64307;52.508;6.090;2023-05-10T06:10:42;22.23;;;10.50;;
75691;SDS011;64307;52.508;6.090;2023-05-10T06:13:07;23.88;;;10.88;;
75691;SDS011;64307;52.508;6.090;2023-05-10T06:15:32;20.40;;;10.40;;
75691;SDS011;64307;52.508;6.090;2023-05-10T06:17:58;24.30;;;10.38;;
75691;SDS011;64307;52.508;6.090;2023-05-10T06:20:23;24.23;;;10.10;;
75691;SDS011;64307;52.508;6.090;2023-05-10T06:22:48;21.10;;;10.55;;
75691;SDS011;64307;52.508;6.090;2023-05-10T06:25:14;23.20;;;10.90;;
75691;SDS011;64307;52.508;6.090;2023-05-10T06:27:39;24.17;;;10.52;;
75691;SDS011;64307;52.508;6.090;2023-05-10T06:30:05;20.15;;;10.10;;
75691;SDS011;64307;52.508;6.090;2023-05-10T06:32:31;22.13;;;10.90;;
75691;SDS011;64307;52.508;6.090;2023-05-10T06:34:56;21.30;;;9.93;;
75691;SDS011;64307;52.508;6.090;2023-05-10T06:37:21;22.63;;;9.57;;
75691;SDS011;64307;52.508;6.090;2023-05-10T06:39:47;22.45;;;9.68;;
75691;SDS011;64307;52.508;6.090;2023-05-10T06:42:12;21.58;;;9.40;;
75691;SDS011;64307;52.508;6.090;2023-05-10T06:44:37;21.13;;;9.17;;
75691;SDS011;64307;52.508;6.090;2023-05-10T06:47:02;21.00;;;9.43;;
75691;SDS011;64307;52.508;6.090;2023-05-10T06:49:28;18.00;;;8.52;;
75691;SDS011;64307;52.508;6.090;2023-05-10T06:51:54;15.57;;;7.22;;
75691;SDS011;64307;52.508;6.090;2023-05-10T06:54:20;20.80;;;7.93;;
75691;SDS011;64307;52.508;6.090;2023-05-10T06:56:46;18.77;;;7.93;;
75691;SDS011;64307;52.508;6.090;2023-05-10T06:59:11;19.63;;;8.00;;
75691;SDS011;64307;52.508;6.090;2023-05-10T07:01:38;17.98;;;8.27;;
75691;SDS011;64307;52.508;6.090;2023-05-10T07:04:03;15.40;;;7.77;;
75691;SDS011;64307;52.508;6.090;2023-05-10T07:06:28;15.68;;;7.82;;
75691;SDS011;64307;52.508;6.090;2023-05-10T07:08:54;15.07;;;7.47;;
75691;SDS011;64307;52.508;6.090;2023-05-10T07:11:19;17.90;;;7.53;;
75691;SDS011;64307;52.508;6.090;2023-05-10T07:13:45;18.15;;;8.18;;
75691;SDS011;64307;52.508;6.090;2023-05-10T07:16:11;16.10;;;7.18;;
75691;SDS011;64307;52.508;6.090;2023-05-10T07:18:36;16.42;;;7.20;;
75691;SDS011;64307;52.508;6.090;2023-05-10T07:21:02;13.07;;;6.63;;
75691;SDS011;64307;52.508;6.090;2023-05-10T07:23:27;17.58;;;7.57;;
75691;SDS011;64307;52.508;6.090;2023-05-10T07:25:53;15.23;;;6.63;;
75691;SDS011;64307;52.508;6.090;2023-05-10T07:28:19;14.23;;;6.35;;
75691;SDS011;64307;52.508;6.090;2023-05-10T07:30:44;14.38;;;5.97;;
75691;SDS011;64307;52.508;6.090;2023-05-10T07:33:10;13.75;;;6.30;;
75691;SDS011;64307;52.508;6.090;2023-05-10T07:35:37;13.80;;;6.20;;
75691;SDS011;64307;52.508;6.090;2023-05-10T07:38:02;14.60;;;6.10;;
75691;SDS011;64307;52.508;6.090;2023-05-10T07:40:28;13.35;;;6.45;;
75691;SDS011;64307;52.508;6.090;2023-05-10T07:42:53;18.85;;;6.22;;
75691;SDS011;64307;52.508;6.090;2023-05-10T07:45:19;13.00;;;5.90;;
75691;SDS011;64307;52.508;6.090;2023-05-10T07:47:44;13.55;;;6.32;;
75691;SDS011;64307;52.508;6.090;2023-05-10T07:50:09;13.23;;;6.10;;
75691;SDS011;64307;52.508;6.090;2023-05-10T07:52:35;14.68;;;6.68;;
75691;SDS011;64307;52.508;6.090;2023-05-10T07:55:00;13.10;;;6.00;;
75691;SDS011;64307;52.508;6.090;2023-05-10T07:57:25;11.38;;;5.50;;
75691;SDS011;64307;52.508;6.090;2023-05-10T07:59:51;11.00;;;5.30;;
75691;SDS011;64307;52.508;6.090;2023-05-10T08:02:16;9.43;;;3.90;;
75691;SDS011;64307;52.508;6.090;2023-05-10T08:04:41;8.67;;;4.07;;
75691;SDS011;64307;52.508;6.090;2023-05-10T08:07:07;9.30;;;3.97;;
75691;SDS011;64307;52.508;6.090;2023-05-10T08:09:32;8.45;;;3.60;;
75691;SDS011;64307;52.508;6.090;2023-05-10T08:11:57;8.20;;;3.67;;
75691;SDS011;64307;52.508;6.090;2023-05-10T08:14:24;6.38;;;3.50;;
75691;SDS011;64307;52.508;6.090;2023-05-10T08:16:49;7.10;;;3.88;;
75691;SDS011;64307;52.508;6.090;2023-05-10T08:19:15;8.52;;;3.88;;
75691;SDS011;64307;52.508;6.090;2023-05-10T08:21:43;11.63;;;3.88;;
75691;SDS011;64307;52.508;6.090;2023-05-10T08:24:09;8.18;;;4.75;;
75691;SDS011;64307;52.508;6.090;2023-05-10T08:26:34;9.43;;;4.63;;
75691;SDS011;64307;52.508;6.090;2023-05-10T08:28:59;7.90;;;3.80;;
75691;SDS011;64307;52.508;6.090;2023-05-10T08:31:25;8.75;;;3.53;;
75691;SDS011;64307;52.508;6.090;2023-05-10T08:33:50;7.03;;;3.60;;
75691;SDS011;64307;52.508;6.090;2023-05-10T08:36:17;6.78;;;3.10;;
75691;SDS011;64307;52.508;6.090;2023-05-10T08:38:46;6.88;;;3.25;;
75691;SDS011;64307;52.508;6.090;2023-05-10T08:41:12;6.75;;;3.58;;
75691;SDS011;64307;52.508;6.090;2023-05-10T08:43:38;7.63;;;3.42;;
75691;SDS011;64307;52.508;6.090;2023-05-10T08:46:06;6.72;;;3.97;;
75691;SDS011;64307;52.508;6.090;2023-05-10T08:48:34;6.78;;;3.72;;
75691;SDS011;64307;52.508;6.090;2023-05-10T08:51:00;7.60;;;4.03;;
75691;SDS011;64307;52.508;6.090;2023-05-10T08:53:28;7.95;;;3.80;;
75691;SDS011;64307;52.508;6.090;2023-05-10T08:55:56;8.82;;;4.18;;
75691;SDS011;64307;52.508;6.090;2023-05-10T08:58:21;6.57;;;3.65;;
75691;SDS011;64307;52.508;6.090;2023-05-10T09:00:48;8.05;;;4.47;;
75691;SDS011;64307;52.508;6.090;2023-05-10T09:03:15;8.00;;;4.30;;
75691;SDS011;64307;52.508;6.090;2023-05-10T09:05:41;9.82;;;4.85;;
75691;SDS011;64307;52.508;6.090;2023-05-10T09:08:07;10.35;;;4.80;;
75691;SDS011;64307;52.508;6.090;2023-05-10T09:10:33;10.13;;;4.93;;
75691;SDS011;64307;52.508;6.090;2023-05-10T09:12:59;9.00;;;5.45;;
75691;SDS011;64307;52.508;6.090;2023-05-10T09:15:25;10.73;;;5.93;;
75691;SDS011;64307;52.508;6.090;2023-05-10T09:17:50;9.27;;;5.82;;
75691;SDS011;64307;52.508;6.090;2023-05-10T09:20:16;10.00;;;5.68;;
75691;SDS011;64307;52.508;6.090;2023-05-10T09:22:42;10.30;;;5.07;;
75691;SDS011;64307;52.508;6.090;2023-05-10T09:25:10;9.95;;;5.07;;
75691;SDS011;64307;52.508;6.090;2023-05-10T09:27:37;9.30;;;5.15;;
75691;SDS011;64307;52.508;6.090;2023-05-10T09:30:04;9.13;;;5.32;;
75691;SDS011;64307;52.508;6.090;2023-05-10T09:32:40;9.85;;;5.93;;
75691;SDS011;64307;52.508;6.090;2023-05-10T09:35:13;9.15;;;5.30;;
75691;SDS011;64307;52.508;6.090;2023-05-10T09:37:40;14.40;;;5.82;;
75691;SDS011;64307;52.508;6.090;2023-05-10T09:40:07;8.68;;;4.97;;
75691;SDS011;64307;52.508;6.090;2023-05-10T09:42:36;9.68;;;4.80;;
75691;SDS011;64307;52.508;6.090;2023-05-10T09:45:05;9.65;;;4.93;;
75691;SDS011;64307;52.508;6.090;2023-05-10T09:47:32;12.02;;;5.63;;
75691;SDS011;64307;52.508;6.090;2023-05-10T09:49:58;10.07;;;5.47;;
75691;SDS011;64307;52.508;6.090;2023-05-10T09:52:28;10.75;;;5.85;;
75691;SDS011;64307;52.508;6.090;2023-05-10T09:55:10;9.07;;;4.97;;
75691;SDS011;64307;52.508;6.090;2023-05-10T09:57:35;9.45;;;4.55;;
75691;SDS011;64307;52.508;6.090;2023-05-10T10:00:01;8.70;;;5.35;;
75691;SDS011;64307;52.508;6.090;2023-05-10T10:02:29;12.05;;;5.82;;
75691;SDS011;64307;52.508;6.090;2023-05-10T10:04:55;9.85;;;5.18;;
75691;SDS011;64307;52.508;6.090;2023-05-10T10:07:24;9.20;;;4.55;;
75691;SDS011;64307;52.508;6.090;2023-05-10T10:09:52;9.60;;;5.03;;
75691;SDS011;64307;52.508;6.090;2023-05-10T10:12:18;11.57;;;4.65;;
75691;SDS011;64307;52.508;6.090;2023-05-10T10:14:45;9.77;;;4.70;;
75691;SDS011;64307;52.508;6.090;2023-05-10T10:17:14;14.80;;;5.20;;
75691;SDS011;64307;52.508;6.090;2023-05-10T10:19:39;10.27;;;5.60;;
75691;SDS011;64307;52.508;6.090;2023-05-10T10:22:06;11.75;;;5.90;;
75691;SDS011;64307;52.508;6.090;2023-05-10T10:24:31;10.77;;;6.00;;
75691;SDS011;64307;52.508;6.090;2023-05-10T10:26:57;10.27;;;5.78;;
75691;SDS011;64307;52.508;6.090;2023-05-10T10:29:38;12.82;;;5.80;;
75691;SDS011;64307;52.508;6.090;2023-05-10T10:32:12;9.98;;;5.25;;
75691;SDS011;64307;52.508;6.090;2023-05-10T10:34:45;11.45;;;5.72;;
75691;SDS011;64307;52.508;6.090;2023-05-10T10:37:11;10.32;;;5.75;;
75691;SDS011;64307;52.508;6.090;2023-05-10T10:39:37;11.75;;;5.93;;
75691;SDS011;64307;52.508;6.090;2023-05-10T10:42:03;9.27;;;5.57;;
75691;SDS011;64307;52.508;6.090;2023-05-10T10:49:27;10.95;;;6.00;;
75691;SDS011;64307;52.508;6.090;2023-05-10T10:54:40;9.77;;;5.45;;
75691;SDS011;64307;52.508;6.090;2023-05-10T10:57:13;10.88;;;5.60;;
75691;SDS011;64307;52.508;6.090;2023-05-10T10:59:42;10.43;;;5.32;;
75691;SDS011;64307;52.508;6.090;2023-05-10T11:08:00;10.27;;;5.05;;
75691;SDS011;64307;52.508;6.090;2023-05-10T11:10:31;9.60;;;5.35;;
75691;SDS011;64307;52.508;6.090;2023-05-10T11:15:32;10.27;;;5.25;;
75691;SDS011;64307;52.508;6.090;2023-05-10T11:18:22;11.15;;;5.60;;
75691;SDS011;64307;52.508;6.090;2023-05-10T11:20:50;9.90;;;4.95;;
75691;SDS011;64307;52.508;6.090;2023-05-10T11:23:57;9.65;;;5.20;;
75691;SDS011;64307;52.508;6.090;2023-05-10T11:26:22;12.35;;;5.40;;
75691;SDS011;64307;52.508;6.090;2023-05-10T11:28:51;11.60;;;5.45;;
75691;SDS011;64307;52.508;6.090;2023-05-10T11:31:20;10.55;;;5.63;;
75691;SDS011;64307;52.508;6.090;2023-05-10T11:33:50;9.93;;;5.82;;
75691;SDS011;64307;52.508;6.090;2023-05-10T11:36:27;12.05;;;5.70;;
75691;SDS011;64307;52.508;6.090;2023-05-10T11:38:54;9.57;;;5.47;;
75691;SDS011;64307;52.508;6.090;2023-05-10T11:41:22;11.85;;;5.53;;
75691;SDS011;64307;52.508;6.090;2023-05-10T11:43:51;12.38;;;5.55;;
75691;SDS011;64307;52.508;6.090;2023-05-10T11:46:20;13.43;;;6.00;;
75691;SDS011;64307;52.508;6.090;2023-05-10T11:48:50;11.25;;;6.03;;
75691;SDS011;64307;52.508;6.090;2023-05-10T11:51:21;11.52;;;5.78;;
75691;SDS011;64307;52.508;6.090;2023-05-10T11:53:49;11.60;;;6.00;;
75691;SDS011;64307;52.508;6.090;2023-05-10T11:56:16;12.57;;;6.22;;
75691;SDS011;64307;52.508;6.090;2023-05-10T11:58:42;12.60;;;6.32;;
75691;SDS011;64307;52.508;6.090;2023-05-10T12:01:08;11.85;;;6.13;;
75691;SDS011;64307;52.508;6.090;2023-05-10T12:03:35;12.80;;;6.60;;
75691;SDS011;64307;52.508;6.090;2023-05-10T12:06:01;12.85;;;6.90;;
75691;SDS011;64307;52.508;6.090;2023-05-10T12:08:27;11.85;;;6.20;;
75691;SDS011;64307;52.508;6.090;2023-05-10T12:11:03;14.13;;;6.38;;
75691;SDS011;64307;52.508;6.090;2023-05-10T12:13:30;13.02;;;7.03;;
75691;SDS011;64307;52.508;6.090;2023-05-10T12:15:59;12.48;;;6.75;;
75691;SDS011;64307;52.508;6.090;2023-05-10T12:18:25;11.38;;;6.78;;
75691;SDS011;64307;52.508;6.090;2023-05-10T12:20:53;14.23;;;6.90;;
75691;SDS011;64307;52.508;6.090;2023-05-10T12:23:19;11.40;;;6.28;;
75691;SDS011;64307;52.508;6.090;2023-05-10T12:25:45;12.20;;;6.60;;
75691;SDS011;64307;52.508;6.090;2023-05-10T12:28:10;12.23;;;6.25;;
75691;SDS011;64307;52.508;6.090;2023-05-10T12:30:37;13.00;;;6.35;;
75691;SDS011;64307;52.508;6.090;2023-05-10T12:33:08;16.23;;;6.47;;
75691;SDS011;64307;52.508;6.090;2023-05-10T12:35:45;14.75;;;6.45;;
75691;SDS011;64307;52.508;6.090;2023-05-10T12:38:24;17.67;;;7.15;;
75691;SDS011;64307;52.508;6.090;2023-05-10T12:40:50;13.85;;;6.47;;
75691;SDS011;64307;52.508;6.090;2023-05-10T12:43:15;14.05;;;6.88;;
75691;SDS011;64307;52.508;6.090;2023-05-10T12:45:40;15.13;;;6.95;;
75691;SDS011;64307;52.508;6.090;2023-05-10T12:48:06;10.13;;;5.93;;
75691;SDS011;64307;52.508;6.090;2023-05-10T12:50:31;12.53;;;5.97;;
75691;SDS011;64307;52.508;6.090;2023-05-10T12:52:56;11.85;;;5.80;;
75691;SDS011;64307;52.508;6.090;2023-05-10T12:55:21;12.40;;;6.17;;
75691;SDS011;64307;52.508;6.090;2023-05-10T12:57:48;11.43;;;6.05;;
75691;SDS011;64307;52.508;6.090;2023-05-10T13:00:13;11.45;;;6.15;;
75691;SDS011;64307;52.508;6.090;2023-05-10T13:02:39;13.02;;;6.53;;
75691;SDS011;64307;52.508;6.090;2023-05-10T13:05:04;12.98;;;6.95;;
75691;SDS011;64307;52.508;6.090;2023-05-10T13:07:30;11.05;;;6.22;;
75691;SDS011;64307;52.508;6.090;2023-05-10T13:09:55;9.70;;;5.53;;
75691;SDS011;64307;52.508;6.090;2023-05-10T13:12:22;10.90;;;6.03;;
75691;SDS011;64307;52.508;6.090;2023-05-10T13:14:49;10.82;;;5.93;;
75691;SDS011;64307;52.508;6.090;2023-05-10T13:17:14;11.73;;;6.18;;
75691;SDS011;64307;52.508;6.090;2023-05-10T13:19:39;9.27;;;5.47;;
75691;SDS011;64307;52.508;6.090;2023-05-10T13:22:05;8.80;;;4.97;;
75691;SDS011;64307;52.508;6.090;2023-05-10T13:24:30;8.87;;;5.07;;
75691;SDS011;64307;52.508;6.090;2023-05-10T13:26:55;10.77;;;4.43;;
75691;SDS011;64307;52.508;6.090;2023-05-10T13:29:21;9.88;;;4.80;;
75691;SDS011;64307;52.508;6.090;2023-05-10T13:31:50;11.52;;;4.72;;
75691;SDS011;64307;52.508;6.090;2023-05-10T13:34:15;10.63;;;5.03;;
75691;SDS011;64307;52.508;6.090;2023-05-10T13:36:41;9.70;;;5.28;;
75691;SDS011;64307;52.508;6.090;2023-05-10T13:39:06;10.60;;;5.65;;
75691;SDS011;64307;52.508;6.090;2023-05-10T13:41:32;10.82;;;5.38;;
75691;SDS011;64307;52.508;6.090;2023-05-10T13:43:57;10.33;;;4.97;;
75691;SDS011;64307;52.508;6.090;2023-05-10T13:46:23;10.20;;;4.97;;
75691;SDS011;64307;52.508;6.090;2023-05-10T13:48:48;10.47;;;5.00;;
75691;SDS011;64307;52.508;6.090;2023-05-10T13:51:13;10.18;;;4.65;;
75691;SDS011;64307;52.508;6.090;2023-05-10T13:53:39;9.60;;;4.80;;
75691;SDS011;64307;52.508;6.090;2023-05-10T13:56:04;8.87;;;5.67;;
75691;SDS011;64307;52.508;6.090;2023-05-10T13:58:29;8.02;;;4.88;;
75691;SDS011;64307;52.508;6.090;2023-05-10T14:00:55;8.43;;;4.72;;
75691;SDS011;64307;52.508;6.090;2023-05-10T14:03:20;10.48;;;5.40;;
75691;SDS011;64307;52.508;6.090;2023-05-10T14:05:46;10.13;;;6.13;;
75691;SDS011;64307;52.508;6.090;2023-05-10T14:08:12;10.40;;;6.28;;
75691;SDS011;64307;52.508;6.090;2023-05-10T14:10:39;13.70;;;7.30;;
75691;SDS011;64307;52.508;6.090;2023-05-10T14:13:04;11.13;;;6.03;;
75691;SDS011;64307;52.508;6.090;2023-05-10T14:15:30;9.43;;;5.45;;
75691;SDS011;64307;52.508;6.090;2023-05-10T14:17:55;7.80;;;4.28;;
75691;SDS011;64307;52.508;6.090;2023-05-10T14:20:21;7.07;;;3.95;;
75691;SDS011;64307;52.508;6.090;2023-05-10T14:22:46;11.07;;;5.80;;
75691;SDS011;64307;52.508;6.090;2023-05-10T14:25:11;11.47;;;6.27;;
75691;SDS011;64307;52.508;6.090;2023-05-10T14:27:37;9.75;;;5.57;;
75691;SDS011;64307;52.508;6.090;2023-05-10T14:30:02;12.30;;;5.80;;
75691;SDS011;64307;52.508;6.090;2023-05-10T14:32:28;10.98;;;6.32;;
75691;SDS011;64307;52.508;6.090;2023-05-10T14:34:53;11.65;;;6.43;;
75691;SDS011;64307;52.508;6.090;2023-05-10T14:37:19;11.57;;;6.25;;
75691;SDS011;64307;52.508;6.090;2023-05-10T14:39:44;12.87;;;6.37;;
75691;SDS011;64307;52.508;6.090;2023-05-10T14:42:10;12.52;;;6.57;;
75691;SDS011;64307;52.508;6.090;2023-05-10T14:44:35;11.05;;;6.00;;
75691;SDS011;64307;52.508;6.090;2023-05-10T14:47:00;12.02;;;6.07;;
75691;SDS011;64307;52.508;6.090;2023-05-10T14:49:26;10.73;;;6.07;;
75691;SDS011;64307;52.508;6.090;2023-05-10T14:51:51;12.05;;;6.00;;
75691;SDS011;64307;52.508;6.090;2023-05-10T14:54:17;11.75;;;5.43;;
75691;SDS011;64307;52.508;6.090;2023-05-10T14:56:42;11.32;;;5.63;;
75691;SDS011;64307;52.508;6.090;2023-05-10T15:02:30;7.47;;;4.43;;
75691;SDS011;64307;52.508;6.090;2023-05-10T15:11:43;8.93;;;5.10;;
75691;SDS011;64307;52.508;6.090;2023-05-10T15:14:09;9.27;;;5.00;;
75691;SDS011;64307;52.508;6.090;2023-05-10T15:16:34;9.70;;;4.95;;
75691;SDS011;64307;52.508;6.090;2023-05-10T15:19:00;9.40;;;4.93;;